Time;durP1;ratioP1;P1;durP2;ratioP2;P2;SDS_P1;SDS_P2;PMS_P1;PMS_P2;Temp;Humidity;BMP_temperature;BMP_pressure;BME280_temperature;BME280_humidity;BME280_pressure;Samples;Min_cycle;Max_cycle;Signal;HPM_P1;HPM_P2
2021/11/21 00:02:04;;;;;;;25.15;13.95;;;12.80;94.50;;;;;;4974361;28;20026;-62
2021/11/21 00:04:29;;;;;;;25.85;14.15;;;12.80;94.50;;;;;;4973776;28;20113;-62
2021/11/21 00:06:58;;;;;;;21.25;13.52;;;12.80;94.50;;;;;;4972265;28;20031;-61
2021/11/21 00:09:23;;;;;;;23.20;14.45;;;12.80;94.50;;;;;;4969002;28;20030;-62
2021/11/21 00:11:49;;;;;;;24.67;15.73;;;12.80;94.80;;;;;;4963523;28;20540;-61
2021/11/21 00:14:15;;;;;;;21.70;13.23;;;12.80;94.50;;;;;;4968113;28;20034;-61
2021/11/21 00:16:41;;;;;;;22.05;14.48;;;12.80;94.80;;;;;;4974486;28;20026;-62
2021/11/21 00:19:07;;;;;;;24.42;14.65;;;12.80;94.60;;;;;;4965883;28;20172;-61
2021/11/21 00:21:33;;;;;;;28.08;15.93;;;12.80;94.60;;;;;;4967200;28;20034;-62
2021/11/21 00:23:58;;;;;;;27.25;15.45;;;12.80;94.50;;;;;;4965704;28;20065;-60
2021/11/21 00:26:24;;;;;;;23.25;14.35;;;12.80;94.50;;;;;;4974583;28;20433;-61
2021/11/21 00:28:50;;;;;;;24.90;15.73;;;12.80;94.50;;;;;;4973314;28;20170;-61
2021/11/21 00:31:17;;;;;;;23.70;14.25;;;12.80;94.50;;;;;;4949650;29;20179;-61
2021/11/21 00:33:43;;;;;;;21.42;13.35;;;12.80;94.50;;;;;;4957580;28;20086;-61
2021/11/21 00:36:08;;;;;;;21.17;13.90;;;12.80;94.60;;;;;;4970974;28;20070;-61
2021/11/21 00:38:34;;;;;;;23.35;14.13;;;12.80;94.50;;;;;;4955447;28;20136;-61
2021/11/21 00:44:22;;;;;;;23.52;14.10;;;12.80;94.50;;;;;;4968834;28;20062;-61
2021/11/21 00:46:48;;;;;;;21.20;13.10;;;12.80;94.50;;;;;;4963362;28;20082;-60
2021/11/21 00:49:17;;;;;;;23.45;14.98;;;12.70;94.60;;;;;;4976987;28;20026;-61
2021/11/21 00:51:44;;;;;;;22.77;13.90;;;12.70;94.60;;;;;;4955162;28;20047;-61
2021/11/21 00:56:49;;;;;;;22.08;14.73;;;12.70;94.60;;;;;;4967667;28;20146;-62
2021/11/21 00:59:19;;;;;;;22.98;13.93;;;12.70;94.60;;;;;;4970057;28;20053;-62
2021/11/21 01:01:46;;;;;;;24.30;13.55;;;12.70;94.60;;;;;;4984330;28;20027;-62
2021/11/21 01:04:12;;;;;;;23.42;13.77;;;12.70;94.60;;;;;;4977483;28;20520;-62
2021/11/21 01:06:37;;;;;;;22.48;14.02;;;12.70;94.60;;;;;;4964633;28;20039;-62
2021/11/21 01:09:03;;;;;;;23.95;13.70;;;12.80;94.60;;;;;;4974664;28;20033;-61
2021/11/21 01:11:29;;;;;;;21.25;13.57;;;12.70;94.60;;;;;;4973354;28;20031;-62
2021/11/21 01:13:55;;;;;;;24.67;13.85;;;12.70;94.60;;;;;;4972601;28;20038;-62
2021/11/21 01:16:20;;;;;;;22.55;13.23;;;12.70;94.60;;;;;;4973472;28;20077;-63
2021/11/21 01:18:46;;;;;;;21.13;12.48;;;12.70;94.60;;;;;;4977186;28;20042;-61
2021/11/21 01:21:12;;;;;;;19.90;13.05;;;12.80;94.60;;;;;;4973521;28;20018;-61
2021/11/21 01:23:38;;;;;;;23.75;13.45;;;12.80;94.60;;;;;;4963782;28;20035;-61
2021/11/21 01:26:03;;;;;;;20.58;12.27;;;12.70;94.50;;;;;;4953829;29;20031;-61
2021/11/21 01:28:29;;;;;;;21.80;13.75;;;12.70;94.50;;;;;;4961506;28;20026;-62
2021/11/21 01:30:55;;;;;;;20.67;13.07;;;12.70;94.50;;;;;;4973158;28;20026;-62
2021/11/21 01:33:22;;;;;;;21.27;13.18;;;12.70;94.50;;;;;;4971934;28;20069;-62
2021/11/21 01:35:47;;;;;;;23.38;13.50;;;12.70;94.60;;;;;;4965395;28;20031;-62
2021/11/21 01:38:13;;;;;;;18.55;12.75;;;12.70;94.60;;;;;;4971877;28;20057;-62
2021/11/21 01:40:40;;;;;;;20.38;12.93;;;12.70;94.50;;;;;;4972286;28;20422;-62
2021/11/21 01:43:07;;;;;;;27.10;13.65;;;12.60;94.50;;;;;;4971870;28;20123;-62
2021/11/21 01:45:33;;;;;;;21.75;13.93;;;12.60;94.50;;;;;;4962663;28;20034;-62
2021/11/21 01:47:59;;;;;;;22.15;13.23;;;12.60;94.50;;;;;;4971886;28;20042;-62
2021/11/21 01:50:37;;;;;;;20.40;12.93;;;12.60;94.50;;;;;;4972536;28;20031;-62
2021/11/21 01:53:04;;;;;;;19.20;12.93;;;12.60;94.50;;;;;;4970931;28;20063;-61
2021/11/21 01:55:31;;;;;;;20.13;12.88;;;12.60;94.50;;;;;;4977572;28;20039;-61
2021/11/21 01:57:58;;;;;;;20.48;12.57;;;12.50;94.70;;;;;;4971683;28;20030;-62
2021/11/21 02:00:27;;;;;;;19.48;12.07;;;12.50;94.50;;;;;;4952406;28;20031;-62
2021/11/21 02:02:52;;;;;;;20.67;12.95;;;12.50;94.50;;;;;;4969956;28;20054;-62
2021/11/21 02:05:18;;;;;;;17.50;11.90;;;12.60;94.50;;;;;;4964784;28;20051;-62
2021/11/21 02:07:46;;;;;;;18.13;11.68;;;12.60;94.50;;;;;;4961037;28;20090;-61
2021/11/21 02:10:14;;;;;;;20.90;12.73;;;12.50;94.50;;;;;;4986657;28;20061;-62
2021/11/21 02:12:40;;;;;;;21.25;12.80;;;12.50;94.50;;;;;;4984264;28;20042;-62
2021/11/21 02:15:12;;;;;;;17.02;11.85;;;12.50;94.50;;;;;;4972820;28;20578;-62
2021/11/21 02:17:38;;;;;;;20.30;13.23;;;12.50;94.50;;;;;;4971952;28;20089;-62
2021/11/21 02:20:06;;;;;;;19.63;12.20;;;12.50;94.50;;;;;;4972094;28;20045;-62
2021/11/21 02:22:32;;;;;;;19.17;12.48;;;12.50;94.40;;;;;;4970042;28;20173;-62
2021/11/21 02:24:57;;;;;;;19.80;13.00;;;12.50;94.40;;;;;;4973407;28;20113;-62
2021/11/21 02:27:28;;;;;;;21.30;12.30;;;12.50;94.40;;;;;;4971989;28;20027;-62
2021/11/21 02:29:54;;;;;;;20.17;12.02;;;12.50;94.40;;;;;;4972538;28;20058;-62
2021/11/21 02:32:20;;;;;;;21.30;13.05;;;12.50;94.40;;;;;;4971880;28;20105;-62
2021/11/21 02:34:46;;;;;;;18.00;12.13;;;12.50;94.40;;;;;;4971180;28;20045;-62
2021/11/21 02:37:11;;;;;;;22.85;12.88;;;12.50;94.40;;;;;;4969981;28;20114;-61
2021/11/21 02:39:39;;;;;;;22.05;13.88;;;12.40;94.30;;;;;;4970658;28;20055;-61
2021/11/21 02:42:05;;;;;;;21.23;13.52;;;12.50;94.30;;;;;;4972442;28;20095;-61
2021/11/21 02:44:31;;;;;;;22.25;13.43;;;12.40;94.30;;;;;;4961139;28;20130;-61
2021/11/21 02:46:57;;;;;;;23.67;13.52;;;12.50;94.30;;;;;;4952947;29;20107;-61
2021/11/21 02:49:23;;;;;;;20.27;12.63;;;12.40;94.30;;;;;;4962988;28;20035;-61
2021/11/21 02:51:48;;;;;;;23.13;13.68;;;12.40;94.30;;;;;;4972480;28;20038;-61
2021/11/21 02:54:14;;;;;;;22.00;14.30;;;12.40;94.30;;;;;;4957488;28;20094;-61
2021/11/21 02:56:40;;;;;;;22.55;14.02;;;12.40;94.20;;;;;;4952489;29;20047;-61
2021/11/21 02:59:06;;;;;;;20.50;13.20;;;12.40;94.20;;;;;;4963973;28;20076;-61
2021/11/21 03:01:32;;;;;;;21.42;13.93;;;12.40;94.20;;;;;;4974110;28;20086;-61
2021/11/21 03:03:58;;;;;;;22.40;14.07;;;12.40;94.20;;;;;;4985884;28;20027;-61
2021/11/21 03:06:24;;;;;;;25.48;15.20;;;12.40;94.20;;;;;;4974329;28;20117;-61
2021/11/21 03:08:50;;;;;;;23.35;14.32;;;12.40;94.40;;;;;;4954399;29;20482;-61
2021/11/21 03:11:16;;;;;;;23.83;13.45;;;12.40;94.20;;;;;;4953564;28;20035;-62
2021/11/21 03:13:42;;;;;;;24.48;14.73;;;12.40;94.10;;;;;;4959787;28;20552;-62
2021/11/21 03:16:08;;;;;;;23.15;14.57;;;12.40;94.10;;;;;;4964630;28;20082;-61
2021/11/21 03:18:34;;;;;;;26.00;14.45;;;12.40;94.10;;;;;;4972506;28;20043;-61
2021/11/21 03:21:00;;;;;;;25.70;14.80;;;12.40;94.10;;;;;;4974620;28;20026;-62
2021/11/21 03:23:25;;;;;;;21.73;13.73;;;12.40;94.10;;;;;;4954830;28;22696;-61
2021/11/21 03:25:51;;;;;;;24.63;15.63;;;12.40;94.10;;;;;;4983807;28;20038;-62
2021/11/21 03:28:17;;;;;;;23.00;13.90;;;12.40;94.10;;;;;;4992507;28;20049;-61
2021/11/21 03:30:42;;;;;;;24.20;14.70;;;12.40;94.00;;;;;;4975828;28;20054;-62
2021/11/21 03:33:08;;;;;;;23.55;13.52;;;12.40;94.00;;;;;;4974239;28;20390;-62
2021/11/21 03:35:34;;;;;;;24.45;14.50;;;12.30;94.00;;;;;;4968935;28;20023;-62
2021/11/21 03:38:00;;;;;;;26.08;14.95;;;12.30;94.00;;;;;;4972513;28;20049;-62
2021/11/21 03:40:26;;;;;;;27.95;16.25;;;12.40;94.00;;;;;;4973099;28;20030;-62
2021/11/21 03:42:52;;;;;;;25.92;14.70;;;12.40;94.00;;;;;;4968793;28;20046;-61
2021/11/21 03:45:18;;;;;;;25.80;14.95;;;12.40;94.00;;;;;;4973615;28;20100;-61
2021/11/21 03:47:45;;;;;;;24.92;14.15;;;12.40;94.00;;;;;;4974757;28;20532;-61
2021/11/21 03:50:12;;;;;;;25.63;15.35;;;12.40;94.00;;;;;;4974029;28;20027;-61
2021/11/21 03:52:39;;;;;;;22.80;14.38;;;12.30;93.90;;;;;;4974836;28;20026;-61
2021/11/21 03:55:06;;;;;;;23.50;14.15;;;12.40;93.90;;;;;;4956588;28;20367;-61
2021/11/21 03:57:31;;;;;;;22.58;13.70;;;12.30;93.90;;;;;;4974630;28;20061;-61
2021/11/21 03:59:57;;;;;;;23.30;14.50;;;12.30;94.00;;;;;;4974133;28;20035;-61
2021/11/21 04:02:23;;;;;;;26.95;16.30;;;12.30;93.90;;;;;;4974762;28;20039;-61
2021/11/21 04:04:48;;;;;;;24.55;14.43;;;12.30;93.90;;;;;;4974197;28;20123;-61
2021/11/21 04:07:14;;;;;;;24.17;13.95;;;12.30;93.90;;;;;;4964176;28;20070;-61
2021/11/21 04:09:40;;;;;;;25.48;15.75;;;12.30;93.90;;;;;;4946174;29;20086;-61
2021/11/21 04:12:06;;;;;;;25.55;15.50;;;12.30;93.90;;;;;;4971621;28;20093;-61
2021/11/21 04:14:32;;;;;;;25.58;15.13;;;12.30;93.90;;;;;;4972278;28;20426;-61
2021/11/21 04:16:57;;;;;;;22.25;14.82;;;12.30;93.90;;;;;;4974687;28;20030;-61
2021/11/21 04:19:23;;;;;;;24.08;15.18;;;12.30;93.90;;;;;;4976100;28;20030;-61
2021/11/21 04:21:49;;;;;;;23.40;14.85;;;12.30;93.90;;;;;;4974798;28;20034;-62
2021/11/21 04:24:15;;;;;;;24.35;14.35;;;12.30;93.80;;;;;;4971942;28;20023;-61
2021/11/21 04:26:43;;;;;;;26.10;14.80;;;12.20;93.80;;;;;;4973441;28;20163;-62
2021/11/21 04:29:09;;;;;;;23.50;13.80;;;12.30;93.80;;;;;;4972016;28;20031;-62
2021/11/21 04:31:35;;;;;;;24.92;14.73;;;12.20;93.90;;;;;;4972718;28;20030;-61
2021/11/21 04:34:01;;;;;;;25.30;14.77;;;12.30;94.10;;;;;;4969305;28;20030;-61
2021/11/21 04:36:26;;;;;;;25.85;15.45;;;12.20;93.90;;;;;;4973856;28;20073;-61
2021/11/21 04:38:52;;;;;;;23.75;14.15;;;12.20;93.90;;;;;;4967066;28;20045;-61
2021/11/21 04:41:18;;;;;;;25.88;15.07;;;12.20;93.90;;;;;;4973623;28;20019;-61
2021/11/21 04:43:44;;;;;;;22.92;13.95;;;12.20;93.90;;;;;;4971813;28;20062;-62
2021/11/21 04:46:09;;;;;;;23.02;14.30;;;12.20;94.10;;;;;;4980886;28;20057;-62
2021/11/21 04:48:35;;;;;;;27.80;15.50;;;12.20;93.90;;;;;;4973300;28;20027;-62
2021/11/21 04:51:01;;;;;;;24.08;14.80;;;12.20;93.90;;;;;;4959286;28;20078;-62
2021/11/21 04:53:26;;;;;;;21.83;13.70;;;12.30;93.90;;;;;;4956573;28;20054;-62
2021/11/21 04:55:52;;;;;;;27.17;15.30;;;12.20;93.80;;;;;;4973396;28;20050;-62
2021/11/21 04:58:18;;;;;;;26.95;15.85;;;12.20;93.80;;;;;;4972409;28;20110;-62
2021/11/21 05:00:45;;;;;;;24.58;15.02;;;12.20;93.80;;;;;;4973799;28;20041;-61
2021/11/21 05:03:11;;;;;;;24.15;14.55;;;12.20;93.80;;;;;;4971712;28;20035;-62
2021/11/21 05:05:37;;;;;;;25.73;15.23;;;12.20;93.90;;;;;;4972930;28;20043;-62
2021/11/21 05:08:04;;;;;;;25.08;14.73;;;12.20;93.90;;;;;;4973335;28;20050;-62
2021/11/21 05:10:30;;;;;;;24.15;14.43;;;12.20;93.90;;;;;;4972388;28;20031;-61
2021/11/21 05:12:56;;;;;;;27.95;15.68;;;12.20;94.00;;;;;;4973175;28;20192;-61
2021/11/21 05:15:24;;;;;;;25.38;14.18;;;12.20;93.90;;;;;;4972692;28;20526;-61
2021/11/21 05:17:50;;;;;;;25.60;15.43;;;12.20;93.90;;;;;;4973397;28;20053;-61
2021/11/21 05:20:17;;;;;;;24.92;14.85;;;12.10;93.90;;;;;;4972622;28;20039;-61
2021/11/21 05:22:45;;;;;;;22.95;14.23;;;12.20;94.00;;;;;;4973231;28;20081;-61
2021/11/21 05:25:11;;;;;;;21.15;13.23;;;12.10;94.00;;;;;;4942105;28;20045;-61
2021/11/21 05:27:37;;;;;;;25.27;15.20;;;12.10;94.00;;;;;;4971947;28;20390;-61
2021/11/21 05:30:04;;;;;;;24.55;14.90;;;12.10;94.00;;;;;;4972290;28;20034;-61
2021/11/21 05:32:30;;;;;;;24.70;14.95;;;12.10;94.00;;;;;;4973251;28;20067;-61
2021/11/21 05:34:56;;;;;;;28.52;15.15;;;12.10;94.00;;;;;;4972139;28;20062;-61
2021/11/21 05:37:22;;;;;;;26.38;15.13;;;12.10;94.00;;;;;;4972723;28;20068;-61
2021/11/21 05:39:47;;;;;;;25.73;13.65;;;12.10;94.20;;;;;;4977217;28;20614;-62
2021/11/21 05:42:13;;;;;;;23.08;13.70;;;12.10;94.10;;;;;;4972778;28;20517;-61
2021/11/21 05:44:39;;;;;;;24.08;14.40;;;12.10;94.10;;;;;;4969402;28;20485;-62
2021/11/21 05:47:04;;;;;;;24.25;13.52;;;12.10;94.10;;;;;;4972324;28;20039;-61
2021/11/21 05:49:30;;;;;;;20.90;12.50;;;12.00;94.10;;;;;;4964313;28;20106;-61
2021/11/21 05:51:56;;;;;;;22.15;13.65;;;12.00;94.00;;;;;;4963129;28;20039;-61
2021/11/21 05:54:22;;;;;;;23.80;13.65;;;12.00;94.10;;;;;;4968869;28;20030;-61
2021/11/21 05:56:47;;;;;;;25.05;14.32;;;12.00;94.10;;;;;;4970666;28;20437;-61
2021/11/21 05:59:13;;;;;;;20.60;12.50;;;12.00;94.10;;;;;;4969622;28;20121;-61
2021/11/21 06:01:39;;;;;;;24.15;13.90;;;12.00;94.10;;;;;;4972754;28;20050;-61
2021/11/21 06:04:06;;;;;;;21.33;13.35;;;12.00;94.20;;;;;;4969816;28;20041;-61
2021/11/21 06:06:32;;;;;;;23.50;14.23;;;12.00;94.10;;;;;;4973881;28;20117;-61
2021/11/21 06:08:58;;;;;;;23.60;13.50;;;11.90;94.10;;;;;;4971537;28;20046;-61
2021/11/21 06:11:23;;;;;;;22.65;13.35;;;11.90;94.20;;;;;;4951659;29;20086;-61
2021/11/21 06:13:49;;;;;;;24.50;13.63;;;11.90;94.20;;;;;;4958246;28;20115;-61
2021/11/21 06:16:14;;;;;;;23.23;13.00;;;11.90;94.30;;;;;;4970910;28;20110;-62
2021/11/21 06:18:40;;;;;;;24.45;14.18;;;11.90;94.20;;;;;;4971375;28;20070;-62
2021/11/21 06:21:06;;;;;;;23.00;13.15;;;11.90;94.20;;;;;;4979197;28;20045;-61
2021/11/21 06:23:35;;;;;;;21.95;12.68;;;11.90;94.30;;;;;;4956027;28;20086;-61
2021/11/21 06:26:05;;;;;;;22.17;13.77;;;11.90;94.30;;;;;;4971658;28;20156;-61
2021/11/21 06:28:32;;;;;;;24.73;13.70;;;11.90;94.30;;;;;;4953523;28;20101;-62
2021/11/21 06:30:58;;;;;;;20.98;12.65;;;11.90;94.30;;;;;;4972532;28;20023;-62
2021/11/21 06:33:24;;;;;;;23.60;12.68;;;11.90;94.30;;;;;;4971073;28;20033;-62
2021/11/21 06:35:51;;;;;;;22.30;13.35;;;11.90;94.40;;;;;;4972414;28;20482;-62
2021/11/21 06:38:17;;;;;;;21.52;12.30;;;11.90;94.40;;;;;;4969220;28;20073;-62
2021/11/21 06:40:44;;;;;;;21.73;12.32;;;11.90;94.30;;;;;;4957158;29;20031;-62
2021/11/21 06:43:10;;;;;;;22.80;12.23;;;11.90;94.30;;;;;;4962379;28;20418;-62
2021/11/21 06:45:36;;;;;;;20.00;11.38;;;11.90;94.30;;;;;;4962561;28;20027;-62
2021/11/21 06:48:09;;;;;;;22.92;12.20;;;11.90;94.30;;;;;;4977910;28;20454;-62
2021/11/21 06:50:34;;;;;;;18.58;10.93;;;11.90;94.30;;;;;;4976082;28;20400;-62
2021/11/21 06:53:00;;;;;;;21.13;11.85;;;11.90;94.30;;;;;;4969258;28;20537;-62
2021/11/21 06:55:26;;;;;;;19.77;11.95;;;11.90;94.30;;;;;;4974886;28;20101;-62
2021/11/21 06:57:51;;;;;;;18.92;10.90;;;11.90;94.30;;;;;;4976442;28;20122;-61
2021/11/21 07:00:17;;;;;;;20.23;11.32;;;11.90;94.30;;;;;;4975401;28;20121;-62
2021/11/21 07:02:43;;;;;;;19.63;11.27;;;11.90;94.30;;;;;;4976001;28;20027;-62
2021/11/21 07:05:09;;;;;;;18.67;10.82;;;11.90;94.30;;;;;;4970142;28;20042;-62
2021/11/21 07:07:36;;;;;;;19.15;11.73;;;11.90;94.30;;;;;;4974728;28;20027;-62
2021/11/21 07:10:04;;;;;;;19.23;11.18;;;11.90;94.30;;;;;;4974947;28;20038;-62
2021/11/21 07:12:29;;;;;;;17.80;10.30;;;12.00;94.40;;;;;;4972799;28;20038;-62
2021/11/21 07:14:55;;;;;;;20.63;11.35;;;11.90;94.40;;;;;;4973571;28;20038;-62
2021/11/21 07:17:20;;;;;;;19.70;10.77;;;12.00;94.40;;;;;;4974982;28;20026;-62
2021/11/21 07:19:46;;;;;;;20.42;10.90;;;12.00;94.30;;;;;;4970253;28;20054;-62
2021/11/21 07:22:12;;;;;;;21.23;12.48;;;12.00;94.30;;;;;;4965446;28;20470;-62
2021/11/21 07:24:37;;;;;;;19.13;11.07;;;12.00;94.30;;;;;;4972755;28;20046;-61
2021/11/21 07:27:03;;;;;;;22.08;12.45;;;12.00;94.30;;;;;;4974329;28;20470;-63
2021/11/21 07:29:29;;;;;;;19.80;11.38;;;12.00;94.40;;;;;;4970457;28;20113;-62
2021/11/21 07:32:00;;;;;;;19.88;11.15;;;12.00;94.40;;;;;;4956630;28;20031;-63
2021/11/21 07:34:26;;;;;;;19.88;11.48;;;12.00;94.50;;;;;;4965223;28;20231;-63
2021/11/21 07:36:52;;;;;;;20.45;11.15;;;12.00;94.60;;;;;;4974262;28;20030;-64
2021/11/21 07:39:18;;;;;;;19.05;10.95;;;12.00;94.60;;;;;;4965243;28;20503;-64
2021/11/21 07:41:44;;;;;;;18.85;11.20;;;12.00;94.60;;;;;;4970339;28;20439;-64
2021/11/21 07:44:09;;;;;;;19.40;11.00;;;12.00;94.70;;;;;;4974394;28;20035;-64
2021/11/21 07:46:36;;;;;;;17.63;11.18;;;12.00;94.70;;;;;;4975418;28;20027;-64
2021/11/21 07:49:02;;;;;;;20.73;11.40;;;12.00;94.80;;;;;;4973905;28;20038;-64
2021/11/21 07:51:27;;;;;;;22.98;12.00;;;12.00;94.90;;;;;;4977820;28;20038;-64
2021/11/21 07:53:53;;;;;;;19.88;11.27;;;12.00;95.00;;;;;;4976917;28;20026;-64
2021/11/21 07:56:19;;;;;;;18.98;10.55;;;12.00;95.00;;;;;;4974844;28;20528;-64
2021/11/21 07:58:45;;;;;;;20.95;11.52;;;12.00;95.10;;;;;;4974179;28;20043;-64
2021/11/21 08:01:10;;;;;;;18.92;11.60;;;12.00;95.20;;;;;;4975251;28;20159;-64
2021/11/21 08:03:36;;;;;;;19.70;11.32;;;11.90;95.30;;;;;;4973567;28;20514;-64
2021/11/21 08:06:04;;;;;;;19.85;11.15;;;12.00;95.40;;;;;;4974905;28;20387;-64
2021/11/21 08:08:30;;;;;;;20.05;10.98;;;12.00;95.50;;;;;;4973882;28;20035;-64
2021/11/21 08:10:55;;;;;;;21.30;12.07;;;12.00;95.60;;;;;;4975008;28;20030;-64
2021/11/21 08:13:21;;;;;;;19.35;11.43;;;12.00;95.80;;;;;;4973927;28;20030;-63
2021/11/21 08:15:47;;;;;;;22.33;11.38;;;12.00;95.90;;;;;;4967880;28;20093;-64
2021/11/21 08:18:14;;;;;;;21.40;12.23;;;11.90;96.00;;;;;;4968188;28;20042;-64
2021/11/21 08:20:40;;;;;;;20.50;11.73;;;11.90;96.10;;;;;;4963652;28;20049;-64
2021/11/21 08:23:06;;;;;;;21.23;12.88;;;11.90;96.20;;;;;;4973808;28;20097;-63
2021/11/21 08:25:34;;;;;;;20.98;11.32;;;11.90;96.30;;;;;;4972707;28;20082;-64
2021/11/21 08:28:00;;;;;;;20.17;11.13;;;11.90;96.40;;;;;;4973463;28;20031;-64
2021/11/21 08:30:26;;;;;;;20.50;12.27;;;11.90;96.40;;;;;;4965514;28;20514;-64
2021/11/21 08:32:52;;;;;;;21.67;11.75;;;12.00;96.50;;;;;;4964035;28;20098;-64
2021/11/21 08:35:18;;;;;;;18.20;10.85;;;12.00;96.50;;;;;;4971895;28;20030;-64
2021/11/21 08:37:43;;;;;;;20.02;11.77;;;12.00;96.60;;;;;;4973563;28;20027;-64
2021/11/21 08:40:10;;;;;;;21.10;11.73;;;12.00;96.60;;;;;;4970353;28;20137;-64
2021/11/21 08:42:36;;;;;;;19.83;11.50;;;12.00;96.70;;;;;;4962807;28;20482;-64
2021/11/21 08:45:07;;;;;;;21.58;11.05;;;12.00;96.70;;;;;;4959128;28;20189;-64
2021/11/21 08:47:32;;;;;;;17.90;10.18;;;12.00;96.80;;;;;;4959902;28;20644;-64
2021/11/21 08:49:58;;;;;;;20.95;11.45;;;12.00;96.80;;;;;;4971540;28;20058;-64
2021/11/21 08:52:24;;;;;;;19.67;11.43;;;12.00;96.90;;;;;;4971185;28;20374;-64
2021/11/21 08:54:49;;;;;;;26.05;12.30;;;11.90;96.90;;;;;;4972182;28;20030;-64
2021/11/21 08:57:15;;;;;;;20.13;12.38;;;11.90;97.00;;;;;;4969875;28;20039;-64
2021/11/21 08:59:41;;;;;;;19.20;11.10;;;11.90;97.00;;;;;;4965494;28;20570;-64
2021/11/21 09:02:07;;;;;;;19.27;10.35;;;11.90;97.10;;;;;;4969390;28;20038;-64
2021/11/21 09:04:33;;;;;;;20.50;11.85;;;11.90;97.20;;;;;;4963267;28;20027;-64
2021/11/21 09:07:01;;;;;;;20.45;11.35;;;11.90;97.30;;;;;;4962569;28;20097;-63
2021/11/21 09:09:27;;;;;;;17.70;10.32;;;11.90;97.30;;;;;;4963112;28;20039;-64
2021/11/21 09:11:53;;;;;;;18.17;10.30;;;12.00;97.40;;;;;;4967557;28;20137;-65
2021/11/21 09:14:18;;;;;;;19.63;10.25;;;11.90;97.40;;;;;;4966108;28;20030;-66
2021/11/21 09:16:44;;;;;;;16.98;9.88;;;11.90;97.40;;;;;;4961247;28;20026;-64
2021/11/21 09:19:11;;;;;;;20.02;10.45;;;11.90;97.40;;;;;;4963024;28;20035;-65
2021/11/21 09:21:37;;;;;;;16.88;9.43;;;11.90;97.40;;;;;;4941006;29;20394;-65
2021/11/21 09:24:04;;;;;;;18.00;10.10;;;11.90;97.50;;;;;;4959795;28;20027;-65
2021/11/21 09:26:30;;;;;;;17.70;9.70;;;11.90;97.50;;;;;;4957916;28;20162;-64
2021/11/21 09:28:56;;;;;;;18.60;9.98;;;11.90;97.50;;;;;;4963302;28;20393;-65
2021/11/21 09:31:22;;;;;;;18.38;10.45;;;11.90;97.60;;;;;;4961003;28;20057;-64
2021/11/21 09:33:47;;;;;;;18.50;9.90;;;11.90;97.70;;;;;;4966057;28;20482;-64
2021/11/21 09:36:13;;;;;;;17.33;9.68;;;12.00;97.70;;;;;;4970331;28;20035;-64
2021/11/21 09:38:39;;;;;;;14.75;9.15;;;12.00;97.60;;;;;;4965097;28;20051;-64
2021/11/21 09:41:05;;;;;;;16.58;9.60;;;12.00;97.60;;;;;;4963402;28;20030;-65
2021/11/21 09:43:31;;;;;;;16.75;10.48;;;12.10;97.60;;;;;;4957760;28;20077;-64
2021/11/21 09:45:57;;;;;;;16.83;10.30;;;12.00;97.60;;;;;;4948226;28;20027;-65
2021/11/21 09:48:32;;;;;;;18.45;9.65;;;12.00;97.60;;;;;;4959199;28;20058;-65
2021/11/21 09:50:58;;;;;;;16.67;9.95;;;12.10;97.60;;;;;;4958225;28;20493;-63
2021/11/21 09:53:24;;;;;;;15.25;9.27;;;12.00;97.60;;;;;;4945255;28;20425;-63
2021/11/21 09:55:50;;;;;;;18.48;10.25;;;12.00;97.60;;;;;;4955487;28;20043;-65
2021/11/21 09:58:15;;;;;;;15.68;9.27;;;12.00;97.80;;;;;;4958642;28;20035;-63
2021/11/21 10:00:41;;;;;;;16.83;10.35;;;12.00;97.70;;;;;;4963565;28;20444;-63
2021/11/21 10:03:12;;;;;;;14.73;9.18;;;12.00;97.70;;;;;;4967047;28;20041;-64
2021/11/21 10:05:50;;;;;;;14.15;8.95;;;12.00;97.70;;;;;;4958339;28;20150;-64
2021/11/21 10:08:18;;;;;;;17.52;8.90;;;12.00;97.70;;;;;;4974269;28;20061;-63
2021/11/21 10:11:04;;;;;;;18.05;9.73;;;12.00;97.70;;;;;;4958149;28;20035;-63
2021/11/21 10:13:50;;;;;;;15.05;9.50;;;12.00;97.70;;;;;;4962921;28;20027;-63
2021/11/21 10:16:16;;;;;;;16.25;9.90;;;12.00;97.80;;;;;;4950369;28;20331;-63
2021/11/21 10:18:57;;;;;;;16.38;9.20;;;12.00;97.80;;;;;;4961001;28;20031;-62
2021/11/21 10:21:25;;;;;;;17.38;10.18;;;12.00;97.90;;;;;;4967794;28;20027;-62
2021/11/21 10:24:21;;;;;;;16.05;9.65;;;12.00;98.00;;;;;;4968539;28;20034;-63
2021/11/21 10:27:01;;;;;;;15.10;9.27;;;12.00;97.90;;;;;;4967622;28;20039;-64
2021/11/21 10:29:35;;;;;;;18.10;10.38;;;12.00;97.90;;;;;;4961929;28;20449;-65
2021/11/21 10:32:11;;;;;;;18.75;9.75;;;12.00;97.90;;;;;;4956754;28;20035;-65
2021/11/21 10:34:52;;;;;;;16.23;10.07;;;12.10;98.00;;;;;;4943375;28;20491;-65
2021/11/21 10:37:20;;;;;;;14.82;9.90;;;12.10;97.90;;;;;;4964867;28;20134;-65
2021/11/21 10:39:46;;;;;;;16.92;10.43;;;12.10;97.80;;;;;;4959089;28;20035;-65
2021/11/21 10:42:13;;;;;;;16.20;9.27;;;12.10;97.80;;;;;;4958988;28;20031;-66
2021/11/21 10:44:49;;;;;;;18.60;10.65;;;12.10;97.80;;;;;;4960153;28;20035;-65
2021/11/21 10:47:14;;;;;;;17.13;9.65;;;12.10;97.80;;;;;;4962025;28;20576;-65
2021/11/21 10:49:40;;;;;;;14.38;9.20;;;12.10;97.80;;;;;;4962520;28;20150;-64
2021/11/21 10:52:22;;;;;;;16.90;9.63;;;12.10;97.80;;;;;;4959078;28;20053;-65
2021/11/21 10:54:51;;;;;;;17.17;10.60;;;12.10;97.80;;;;;;4961940;28;20027;-63
2021/11/21 10:57:33;;;;;;;21.00;11.00;;;12.00;97.80;;;;;;4956065;28;20039;-63
2021/11/21 11:00:04;;;;;;;18.77;9.38;;;12.10;97.80;;;;;;4960994;28;20035;-64
2021/11/21 11:02:32;;;;;;;18.45;9.52;;;12.10;97.80;;;;;;4958006;28;20038;-64
2021/11/21 11:05:06;;;;;;;18.88;10.95;;;12.10;97.80;;;;;;4957356;28;20495;-65
2021/11/21 11:07:46;;;;;;;15.60;9.43;;;12.10;97.80;;;;;;4954370;28;20500;-65
2021/11/21 11:10:16;;;;;;;16.60;9.80;;;12.10;97.80;;;;;;4959043;28;20019;-65
2021/11/21 11:12:48;;;;;;;17.70;9.75;;;12.10;97.80;;;;;;4956889;28;20121;-65
2021/11/21 11:15:14;;;;;;;15.00;9.02;;;12.00;97.70;;;;;;4960874;28;20118;-65
2021/11/21 11:17:40;;;;;;;18.00;11.07;;;12.00;97.70;;;;;;4941652;28;20065;-66
2021/11/21 11:20:12;;;;;;;14.57;9.75;;;12.00;97.70;;;;;;4959112;28;20031;-67
2021/11/21 11:22:40;;;;;;;15.40;9.77;;;12.00;97.80;;;;;;4958083;28;20039;-65
2021/11/21 11:25:18;;;;;;;16.73;9.82;;;12.00;97.80;;;;;;4963432;28;20031;-64
2021/11/21 11:27:57;;;;;;;17.95;10.35;;;12.00;97.80;;;;;;4963224;28;20038;-64
2021/11/21 11:30:31;;;;;;;16.55;9.95;;;12.00;97.80;;;;;;4961991;28;20078;-65
2021/11/21 11:33:13;;;;;;;16.77;9.35;;;12.00;97.80;;;;;;4962892;28;20035;-65
2021/11/21 11:35:47;;;;;;;15.48;9.90;;;12.10;97.80;;;;;;4969252;28;20039;-64
2021/11/21 11:38:17;;;;;;;;;;;12.10;97.80;;;;;;4976067;28;20038;-65
2021/11/21 11:41:04;;;;;;;15.30;8.50;;;12.10;97.70;;;;;;4972565;28;19921;-65
2021/11/21 11:43:36;;;;;;;16.13;10.35;;;12.10;97.80;;;;;;4975286;28;20046;-65
2021/11/21 11:46:21;;;;;;;17.30;9.77;;;12.10;97.90;;;;;;4959467;28;20159;-65
2021/11/21 11:49:00;;;;;;;14.30;9.23;;;12.10;97.90;;;;;;4968060;28;20058;-65
2021/11/21 11:51:38;;;;;;;15.52;9.82;;;12.10;97.90;;;;;;4970717;28;20042;-65
2021/11/21 11:54:19;;;;;;;17.33;9.90;;;12.10;97.80;;;;;;4968238;28;20050;-65
2021/11/21 11:56:55;;;;;;;15.15;9.48;;;12.10;97.90;;;;;;4971157;28;20563;-65
2021/11/21 11:59:47;;;;;;;14.98;9.73;;;12.20;97.90;;;;;;4964435;28;20046;-65
2021/11/21 12:02:35;;;;;;;15.80;9.98;;;12.20;97.90;;;;;;4966206;28;20031;-65
2021/11/21 12:05:05;;;;;;;14.40;8.75;;;12.20;98.10;;;;;;4964184;28;20047;-64
2021/11/21 12:07:37;;;;;;;15.68;9.27;;;12.20;98.00;;;;;;4962587;28;20039;-66
2021/11/21 12:10:09;;;;;;;15.57;9.63;;;12.20;98.00;;;;;;4964501;28;20035;-67
2021/11/21 12:13:05;;;;;;;15.73;9.38;;;12.20;98.00;;;;;;4960675;28;20530;-64
2021/11/21 12:15:55;;;;;;;15.43;10.60;;;12.30;98.10;;;;;;4958800;28;20026;-66
2021/11/21 12:18:42;;;;;;;16.85;9.95;;;12.20;98.10;;;;;;4946738;28;20042;-65
2021/11/21 12:21:08;;;;;;;14.88;9.85;;;12.20;98.20;;;;;;4958719;28;20031;-64
2021/11/21 12:23:40;;;;;;;15.63;10.32;;;12.20;98.20;;;;;;4970761;28;20118;-65
2021/11/21 12:26:43;;;;;;;14.93;9.65;;;12.30;98.40;;;;;;4969251;28;20030;-65
2021/11/21 12:29:22;;;;;;;16.13;10.57;;;12.30;98.30;;;;;;4972031;28;20073;-65
2021/11/21 12:31:48;;;;;;;17.23;10.85;;;12.30;98.30;;;;;;4970266;28;20035;-67
2021/11/21 12:34:43;;;;;;;16.30;10.02;;;12.30;98.30;;;;;;4968536;28;20030;-65
2021/11/21 12:37:21;;;;;;;16.70;9.80;;;12.30;98.30;;;;;;4964675;28;20031;-64
2021/11/21 12:39:48;;;;;;;15.38;9.65;;;12.30;98.30;;;;;;4973322;28;20054;-66